sensor_id;sensor_type;location;lat;lon;timestamp;temperature;humidity
23991;DHT22;12205;50.600;4.608;2022-07-15T00:02:00;17.70;99.90
23991;DHT22;12205;50.600;4.608;2022-07-15T00:04:29;17.60;99.90
23991;DHT22;12205;50.600;4.608;2022-07-15T00:06:56;17.70;99.90
23991;DHT22;12205;50.600;4.608;2022-07-15T00:09:24;17.60;99.90
23991;DHT22;12205;50.600;4.608;2022-07-15T00:12:06;17.60;99.90
23991;DHT22;12205;50.600;4.608;2022-07-15T00:14:33;17.60;99.90
23991;DHT22;12205;50.600;4.608;2022-07-15T00:17:01;17.60;99.90
23991;DHT22;12205;50.600;4.608;2022-07-15T00:19:28;17.60;99.90
23991;DHT22;12205;50.600;4.608;2022-07-15T00:21:55;17.60;99.90
23991;DHT22;12205;50.600;4.608;2022-07-15T00:24:24;17.50;99.90
23991;DHT22;12205;50.600;4.608;2022-07-15T00:26:51;17.50;99.90
23991;DHT22;12205;50.600;4.608;2022-07-15T00:29:18;17.50;99.90
23991;DHT22;12205;50.600;4.608;2022-07-15T00:31:45;17.40;99.90
23991;DHT22;12205;50.600;4.608;2022-07-15T00:34:12;17.40;99.90
23991;DHT22;12205;50.600;4.608;2022-07-15T00:36:39;17.40;99.90
23991;DHT22;12205;50.600;4.608;2022-07-15T00:39:06;17.40;99.90
23991;DHT22;12205;50.600;4.608;2022-07-15T00:41:40;17.30;99.90
23991;DHT22;12205;50.600;4.608;2022-07-15T00:44:09;17.20;99.90
23991;DHT22;12205;50.600;4.608;2022-07-15T00:46:38;17.10;99.90
23991;DHT22;12205;50.600;4.608;2022-07-15T00:49:07;17.10;99.90
23991;DHT22;12205;50.600;4.608;2022-07-15T00:51:36;17.10;99.90
23991;DHT22;12205;50.600;4.608;2022-07-15T00:54:06;17.00;99.90
23991;DHT22;12205;50.600;4.608;2022-07-15T00:56:38;17.10;99.90
23991;DHT22;12205;50.600;4.608;2022-07-15T00:59:10;17.00;99.90
23991;DHT22;12205;50.600;4.608;2022-07-15T01:01:40;17.00;99.90
23991;DHT22;12205;50.600;4.608;2022-07-15T01:04:09;17.00;99.90
23991;DHT22;12205;50.600;4.608;2022-07-15T01:06:37;17.00;99.90
23991;DHT22;12205;50.600;4.608;2022-07-15T01:09:04;16.90;99.90
23991;DHT22;12205;50.600;4.608;2022-07-15T01:11:32;16.90;99.90
23991;DHT22;12205;50.600;4.608;2022-07-15T01:14:04;16.90;99.90
23991;DHT22;12205;50.600;4.608;2022-07-15T01:16:31;16.80;99.90
23991;DHT22;12205;50.600;4.608;2022-07-15T01:18:59;16.80;99.90
23991;DHT22;12205;50.600;4.608;2022-07-15T01:21:36;16.70;99.90
23991;DHT22;12205;50.600;4.608;2022-07-15T01:24:04;16.70;99.90
23991;DHT22;12205;50.600;4.608;2022-07-15T01:26:54;16.60;99.90
23991;DHT22;12205;50.600;4.608;2022-07-15T01:29:22;16.60;99.90
23991;DHT22;12205;50.600;4.608;2022-07-15T01:31:50;16.60;99.90
23991;DHT22;12205;50.600;4.608;2022-07-15T01:34:18;16.50;99.90
23991;DHT22;12205;50.600;4.608;2022-07-15T01:36:46;16.40;99.90
23991;DHT22;12205;50.600;4.608;2022-07-15T01:39:14;16.40;99.90
23991;DHT22;12205;50.600;4.608;2022-07-15T01:41:41;16.30;99.90
23991;DHT22;12205;50.600;4.608;2022-07-15T01:44:12;16.30;99.90
23991;DHT22;12205;50.600;4.608;2022-07-15T01:46:42;16.20;99.90
23991;DHT22;12205;50.600;4.608;2022-07-15T01:49:10;16.10;99.90
23991;DHT22;12205;50.600;4.608;2022-07-15T01:52:20;16.10;99.90
23991;DHT22;12205;50.600;4.608;2022-07-15T01:54:48;16.00;99.90
23991;DHT22;12205;50.600;4.608;2022-07-15T01:57:15;16.00;99.90
23991;DHT22;12205;50.600;4.608;2022-07-15T01:59:49;15.90;99.90
23991;DHT22;12205;50.600;4.608;2022-07-15T02:02:28;15.80;99.90
23991;DHT22;12205;50.600;4.608;2022-07-15T02:04:56;15.70;99.90
23991;DHT22;12205;50.600;4.608;2022-07-15T02:07:24;15.70;99.90
23991;DHT22;12205;50.600;4.608;2022-07-15T02:09:51;15.70;99.90
23991;DHT22;12205;50.600;4.608;2022-07-15T02:12:18;15.70;99.90
23991;DHT22;12205;50.600;4.608;2022-07-15T02:14:51;15.70;99.90
23991;DHT22;12205;50.600;4.608;2022-07-15T02:17:19;15.70;99.90
23991;DHT22;12205;50.600;4.608;2022-07-15T02:19:46;15.70;99.90
23991;DHT22;12205;50.600;4.608;2022-07-15T02:22:14;15.60;99.90
23991;DHT22;12205;50.600;4.608;2022-07-15T02:24:42;15.60;99.90
23991;DHT22;12205;50.600;4.608;2022-07-15T02:27:17;15.50;99.90
23991;DHT22;12205;50.600;4.608;2022-07-15T02:29:44;15.50;99.90
23991;DHT22;12205;50.600;4.608;2022-07-15T02:32:12;15.50;99.90
23991;DHT22;12205;50.600;4.608;2022-07-15T02:34:41;15.40;99.90
23991;DHT22;12205;50.600;4.608;2022-07-15T02:37:08;15.40;99.90
23991;DHT22;12205;50.600;4.608;2022-07-15T02:39:36;15.30;99.90
23991;DHT22;12205;50.600;4.608;2022-07-15T02:42:05;15.30;99.90
23991;DHT22;12205;50.600;4.608;2022-07-15T02:44:34;15.40;99.90
23991;DHT22;12205;50.600;4.608;2022-07-15T02:47:01;15.30;99.90
23991;DHT22;12205;50.600;4.608;2022-07-15T02:49:30;15.20;99.90
23991;DHT22;12205;50.600;4.608;2022-07-15T02:51:57;15.10;99.90
23991;DHT22;12205;50.600;4.608;2022-07-15T02:54:28;15.00;99.90
23991;DHT22;12205;50.600;4.608;2022-07-15T02:56:55;15.00;99.90
23991;DHT22;12205;50.600;4.608;2022-07-15T02:59:27;15.00;99.90
23991;DHT22;12205;50.600;4.608;2022-07-15T03:01:57;14.90;99.90
23991;DHT22;12205;50.600;4.608;2022-07-15T03:04:24;14.90;99.90
23991;DHT22;12205;50.600;4.608;2022-07-15T03:06:52;14.80;99.90
23991;DHT22;12205;50.600;4.608;2022-07-15T03:09:23;14.80;99.90
23991;DHT22;12205;50.600;4.608;2022-07-15T03:11:50;14.80;99.90
23991;DHT22;12205;50.600;4.608;2022-07-15T03:14:17;14.70;99.90
23991;DHT22;12205;50.600;4.608;2022-07-15T03:16:47;14.70;99.90
23991;DHT22;12205;50.600;4.608;2022-07-15T03:19:14;14.60;99.90
23991;DHT22;12205;50.600;4.608;2022-07-15T03:21:45;14.50;99.90
23991;DHT22;12205;50.600;4.608;2022-07-15T03:24:12;14.50;99.90
23991;DHT22;12205;50.600;4.608;2022-07-15T03:26:41;14.50;99.90
23991;DHT22;12205;50.600;4.608;2022-07-15T03:29:08;14.40;99.90
23991;DHT22;12205;50.600;4.608;2022-07-15T03:31:40;14.40;99.90
23991;DHT22;12205;50.600;4.608;2022-07-15T03:34:09;14.40;99.90
23991;DHT22;12205;50.600;4.608;2022-07-15T03:36:36;14.40;99.90
23991;DHT22;12205;50.600;4.608;2022-07-15T03:39:04;14.30;99.90
23991;DHT22;12205;50.600;4.608;2022-07-15T03:41:35;14.30;99.90
23991;DHT22;12205;50.600;4.608;2022-07-15T03:44:03;14.20;99.90
23991;DHT22;12205;50.600;4.608;2022-07-15T03:46:31;14.20;99.90
23991;DHT22;12205;50.600;4.608;2022-07-15T03:49:02;14.20;99.90
23991;DHT22;12205;50.600;4.608;2022-07-15T03:51:33;14.20;99.90
23991;DHT22;12205;50.600;4.608;2022-07-15T03:54:01;14.10;99.90
23991;DHT22;12205;50.600;4.608;2022-07-15T03:56:30;14.10;99.90
23991;DHT22;12205;50.600;4.608;2022-07-15T03:58:57;14.10;99.90
23991;DHT22;12205;50.600;4.608;2022-07-15T04:01:25;14.10;99.90
23991;DHT22;12205;50.600;4.608;2022-07-15T04:03:55;14.00;99.90
23991;DHT22;12205;50.600;4.608;2022-07-15T04:06:23;14.00;99.90
23991;DHT22;12205;50.600;4.608;2022-07-15T04:08:52;14.00;99.90
23991;DHT22;12205;50.600;4.608;2022-07-15T04:15:33;13.90;99.90
23991;DHT22;12205;50.600;4.608;2022-07-15T04:18:00;13.90;99.90
23991;DHT22;12205;50.600;4.608;2022-07-15T04:20:27;13.90;99.90
23991;DHT22;12205;50.600;4.608;2022-07-15T04:22:58;13.90;99.90
23991;DHT22;12205;50.600;4.608;2022-07-15T04:25:27;13.90;99.90
23991;DHT22;12205;50.600;4.608;2022-07-15T04:27:55;13.90;99.90
23991;DHT22;12205;50.600;4.608;2022-07-15T04:30:27;13.90;99.90
23991;DHT22;12205;50.600;4.608;2022-07-15T04:32:54;13.80;99.90
23991;DHT22;12205;50.600;4.608;2022-07-15T04:35:24;13.90;99.90
23991;DHT22;12205;50.600;4.608;2022-07-15T04:38:04;13.90;99.90
23991;DHT22;12205;50.600;4.608;2022-07-15T04:40:35;13.90;99.90
23991;DHT22;12205;50.600;4.608;2022-07-15T04:43:04;13.90;99.90
23991;DHT22;12205;50.600;4.608;2022-07-15T04:45:31;13.90;99.90
23991;DHT22;12205;50.600;4.608;2022-07-15T04:47:59;13.90;99.90
23991;DHT22;12205;50.600;4.608;2022-07-15T04:50:30;14.00;99.90
23991;DHT22;12205;50.600;4.608;2022-07-15T04:53:12;14.00;99.90
23991;DHT22;12205;50.600;4.608;2022-07-15T04:55:40;14.00;99.90
23991;DHT22;12205;50.600;4.608;2022-07-15T04:58:07;14.10;99.90
23991;DHT22;12205;50.600;4.608;2022-07-15T05:00:35;14.10;99.90
23991;DHT22;12205;50.600;4.608;2022-07-15T05:03:02;14.10;99.90
23991;DHT22;12205;50.600;4.608;2022-07-15T05:05:32;14.10;99.90
23991;DHT22;12205;50.600;4.608;2022-07-15T05:07:59;14.20;99.90
23991;DHT22;12205;50.600;4.608;2022-07-15T05:10:26;14.20;99.90
23991;DHT22;12205;50.600;4.608;2022-07-15T05:13:03;14.20;99.90
23991;DHT22;12205;50.600;4.608;2022-07-15T05:15:31;14.30;99.90
23991;DHT22;12205;50.600;4.608;2022-07-15T05:18:09;14.30;99.90
23991;DHT22;12205;50.600;4.608;2022-07-15T05:20:36;14.30;99.90
23991;DHT22;12205;50.600;4.608;2022-07-15T05:23:04;14.40;99.90
23991;DHT22;12205;50.600;4.608;2022-07-15T05:25:36;14.50;99.90
23991;DHT22;12205;50.600;4.608;2022-07-15T05:28:04;14.50;99.90
23991;DHT22;12205;50.600;4.608;2022-07-15T05:30:32;14.50;99.90
23991;DHT22;12205;50.600;4.608;2022-07-15T05:33:01;14.60;99.90
23991;DHT22;12205;50.600;4.608;2022-07-15T05:35:28;14.70;99.90
23991;DHT22;12205;50.600;4.608;2022-07-15T05:37:56;14.70;99.90
23991;DHT22;12205;50.600;4.608;2022-07-15T05:40:28;14.80;99.90
23991;DHT22;12205;50.600;4.608;2022-07-15T05:42:56;14.80;99.90
23991;DHT22;12205;50.600;4.608;2022-07-15T05:45:25;14.90;99.90
23991;DHT22;12205;50.600;4.608;2022-07-15T05:48:01;15.00;99.90
23991;DHT22;12205;50.600;4.608;2022-07-15T05:50:32;15.00;99.90
23991;DHT22;12205;50.600;4.608;2022-07-15T05:53:00;15.00;99.90
23991;DHT22;12205;50.600;4.608;2022-07-15T05:55:28;15.10;99.90
23991;DHT22;12205;50.600;4.608;2022-07-15T05:57:55;15.10;99.90
23991;DHT22;12205;50.600;4.608;2022-07-15T06:00:32;15.10;99.90
23991;DHT22;12205;50.600;4.608;2022-07-15T06:03:00;15.20;99.90
23991;DHT22;12205;50.600;4.608;2022-07-15T06:05:30;15.20;99.90
23991;DHT22;12205;50.600;4.608;2022-07-15T06:08:00;15.30;99.90
23991;DHT22;12205;50.600;4.608;2022-07-15T06:10:32;15.40;99.90
23991;DHT22;12205;50.600;4.608;2022-07-15T06:12:59;15.50;99.90
23991;DHT22;12205;50.600;4.608;2022-07-15T06:15:27;15.50;99.90
23991;DHT22;12205;50.600;4.608;2022-07-15T06:17:57;15.60;99.90
23991;DHT22;12205;50.600;4.608;2022-07-15T06:20:29;15.70;99.90
23991;DHT22;12205;50.600;4.608;2022-07-15T06:22:56;15.80;99.90
23991;DHT22;12205;50.600;4.608;2022-07-15T06:25:23;15.90;99.90
23991;DHT22;12205;50.600;4.608;2022-07-15T06:27:51;15.90;99.90
23991;DHT22;12205;50.600;4.608;2022-07-15T06:30:20;16.00;99.90
23991;DHT22;12205;50.600;4.608;2022-07-15T06:32:47;16.00;99.90
23991;DHT22;12205;50.600;4.608;2022-07-15T06:35:15;16.10;99.90
23991;DHT22;12205;50.600;4.608;2022-07-15T06:37:42;16.10;99.90
23991;DHT22;12205;50.600;4.608;2022-07-15T06:40:10;16.20;99.90
23991;DHT22;12205;50.600;4.608;2022-07-15T06:42:38;16.30;99.90
23991;DHT22;12205;50.600;4.608;2022-07-15T06:45:09;16.40;99.90
23991;DHT22;12205;50.600;4.608;2022-07-15T06:47:39;16.50;99.90
23991;DHT22;12205;50.600;4.608;2022-07-15T06:50:08;16.60;99.90
23991;DHT22;12205;50.600;4.608;2022-07-15T06:52:37;16.70;99.90
23991;DHT22;12205;50.600;4.608;2022-07-15T06:55:06;16.90;99.90
23991;DHT22;12205;50.600;4.608;2022-07-15T06:57:33;17.00;99.90
23991;DHT22;12205;50.600;4.608;2022-07-15T07:00:01;17.10;99.90
23991;DHT22;12205;50.600;4.608;2022-07-15T07:02:29;17.20;99.90
23991;DHT22;12205;50.600;4.608;2022-07-15T07:04:58;17.20;99.90
23991;DHT22;12205;50.600;4.608;2022-07-15T07:07:25;17.30;99.90
23991;DHT22;12205;50.600;4.608;2022-07-15T07:09:54;17.40;99.90
23991;DHT22;12205;50.600;4.608;2022-07-15T07:12:23;17.40;99.90
23991;DHT22;12205;50.600;4.608;2022-07-15T07:14:50;17.40;99.90
23991;DHT22;12205;50.600;4.608;2022-07-15T07:17:18;17.40;99.90
23991;DHT22;12205;50.600;4.608;2022-07-15T07:19:45;17.40;99.90
23991;DHT22;12205;50.600;4.608;2022-07-15T07:22:13;17.40;99.90
23991;DHT22;12205;50.600;4.608;2022-07-15T07:24:40;17.40;99.90
23991;DHT22;12205;50.600;4.608;2022-07-15T07:27:08;17.50;99.90
23991;DHT22;12205;50.600;4.608;2022-07-15T07:29:35;17.50;99.90
23991;DHT22;12205;50.600;4.608;2022-07-15T07:32:03;17.60;99.90
23991;DHT22;12205;50.600;4.608;2022-07-15T07:34:30;17.60;99.90
23991;DHT22;12205;50.600;4.608;2022-07-15T07:36:58;17.60;99.90
23991;DHT22;12205;50.600;4.608;2022-07-15T07:39:25;17.70;99.90
23991;DHT22;12205;50.600;4.608;2022-07-15T07:41:52;17.80;99.90
23991;DHT22;12205;50.600;4.608;2022-07-15T07:44:21;17.90;99.90
23991;DHT22;12205;50.600;4.608;2022-07-15T07:46:48;18.00;99.90
23991;DHT22;12205;50.600;4.608;2022-07-15T07:49:15;18.10;99.90
23991;DHT22;12205;50.600;4.608;2022-07-15T07:51:42;18.20;99.90
23991;DHT22;12205;50.600;4.608;2022-07-15T07:54:09;18.20;99.90
23991;DHT22;12205;50.600;4.608;2022-07-15T07:56:37;18.30;99.90
23991;DHT22;12205;50.600;4.608;2022-07-15T07:59:04;18.30;99.90
23991;DHT22;12205;50.600;4.608;2022-07-15T08:01:33;18.30;99.90
23991;DHT22;12205;50.600;4.608;2022-07-15T08:04:00;18.30;99.90
23991;DHT22;12205;50.600;4.608;2022-07-15T08:06:27;18.30;99.90
23991;DHT22;12205;50.600;4.608;2022-07-15T08:08:55;18.30;99.90
23991;DHT22;12205;50.600;4.608;2022-07-15T08:11:22;18.40;99.90
23991;DHT22;12205;50.600;4.608;2022-07-15T08:13:49;18.50;99.90
23991;DHT22;12205;50.600;4.608;2022-07-15T08:16:16;18.50;99.90
23991;DHT22;12205;50.600;4.608;2022-07-15T08:18:45;18.60;99.90
23991;DHT22;12205;50.600;4.608;2022-07-15T08:21:12;18.60;99.90
23991;DHT22;12205;50.600;4.608;2022-07-15T08:23:39;18.60;99.90
23991;DHT22;12205;50.600;4.608;2022-07-15T08:26:06;18.70;99.90
23991;DHT22;12205;50.600;4.608;2022-07-15T08:28:36;18.80;99.90
23991;DHT22;12205;50.600;4.608;2022-07-15T08:31:03;18.80;99.90
23991;DHT22;12205;50.600;4.608;2022-07-15T08:33:30;18.80;99.90
23991;DHT22;12205;50.600;4.608;2022-07-15T08:35:59;18.70;99.90
23991;DHT22;12205;50.600;4.608;2022-07-15T08:38:26;18.80;99.90
23991;DHT22;12205;50.600;4.608;2022-07-15T08:40:56;18.80;99.90
23991;DHT22;12205;50.600;4.608;2022-07-15T08:43:23;18.90;99.90
23991;DHT22;12205;50.600;4.608;2022-07-15T08:45:50;18.90;99.90
23991;DHT22;12205;50.600;4.608;2022-07-15T08:48:23;19.00;99.90
23991;DHT22;12205;50.600;4.608;2022-07-15T08:50:54;19.00;99.90
23991;DHT22;12205;50.600;4.608;2022-07-15T08:53:23;19.10;99.90
23991;DHT22;12205;50.600;4.608;2022-07-15T08:55:51;19.20;99.90
23991;DHT22;12205;50.600;4.608;2022-07-15T08:58:18;19.30;99.90
23991;DHT22;12205;50.600;4.608;2022-07-15T09:00:45;19.30;99.90
23991;DHT22;12205;50.600;4.608;2022-07-15T09:03:13;19.40;99.90
23991;DHT22;12205;50.600;4.608;2022-07-15T09:05:40;19.40;99.90
23991;DHT22;12205;50.600;4.608;2022-07-15T09:08:09;19.50;99.90
23991;DHT22;12205;50.600;4.608;2022-07-15T09:10:48;19.50;99.90
23991;DHT22;12205;50.600;4.608;2022-07-15T09:13:32;19.40;99.90
23991;DHT22;12205;50.600;4.608;2022-07-15T09:16:01;19.30;99.90
23991;DHT22;12205;50.600;4.608;2022-07-15T09:18:31;19.10;99.90
23991;DHT22;12205;50.600;4.608;2022-07-15T09:21:02;19.10;99.90
23991;DHT22;12205;50.600;4.608;2022-07-15T09:23:40;19.10;99.90
23991;DHT22;12205;50.600;4.608;2022-07-15T09:26:24;19.20;99.90
23991;DHT22;12205;50.600;4.608;2022-07-15T09:28:53;19.20;99.90
23991;DHT22;12205;50.600;4.608;2022-07-15T09:31:28;19.20;99.90
23991;DHT22;12205;50.600;4.608;2022-07-15T09:34:13;19.20;99.90
23991;DHT22;12205;50.600;4.608;2022-07-15T09:36:43;19.30;99.90
23991;DHT22;12205;50.600;4.608;2022-07-15T09:39:17;19.40;99.90
23991;DHT22;12205;50.600;4.608;2022-07-15T09:41:46;19.60;99.90
23991;DHT22;12205;50.600;4.608;2022-07-15T09:44:15;19.80;99.90
23991;DHT22;12205;50.600;4.608;2022-07-15T09:46:45;20.00;99.90
23991;DHT22;12205;50.600;4.608;2022-07-15T09:49:17;20.10;99.90
23991;DHT22;12205;50.600;4.608;2022-07-15T09:52:00;20.00;99.90
23991;DHT22;12205;50.600;4.608;2022-07-15T09:54:30;20.10;99.90
23991;DHT22;12205;50.600;4.608;2022-07-15T09:57:01;20.20;99.90
23991;DHT22;12205;50.600;4.608;2022-07-15T09:59:31;20.30;99.90
23991;DHT22;12205;50.600;4.608;2022-07-15T10:01:58;20.40;99.90
23991;DHT22;12205;50.600;4.608;2022-07-15T10:04:28;20.40;99.90
23991;DHT22;12205;50.600;4.608;2022-07-15T10:06:58;20.50;99.90
23991;DHT22;12205;50.600;4.608;2022-07-15T10:09:28;20.60;99.90
23991;DHT22;12205;50.600;4.608;2022-07-15T10:11:59;20.70;99.90
23991;DHT22;12205;50.600;4.608;2022-07-15T10:14:46;20.70;99.90
23991;DHT22;12205;50.600;4.608;2022-07-15T10:17:35;20.60;99.90
23991;DHT22;12205;50.600;4.608;2022-07-15T10:20:39;20.80;99.90
23991;DHT22;12205;50.600;4.608;2022-07-15T10:23:48;20.60;99.90
23991;DHT22;12205;50.600;4.608;2022-07-15T10:26:50;20.60;99.90
23991;DHT22;12205;50.600;4.608;2022-07-15T10:29:33;20.90;99.90
23991;DHT22;12205;50.600;4.608;2022-07-15T10:32:01;21.10;99.90
23991;DHT22;12205;50.600;4.608;2022-07-15T10:34:30;21.10;99.90
23991;DHT22;12205;50.600;4.608;2022-07-15T10:37:07;21.10;99.90
23991;DHT22;12205;50.600;4.608;2022-07-15T10:39:53;21.20;99.90
23991;DHT22;12205;50.600;4.608;2022-07-15T10:42:25;21.30;99.90
23991;DHT22;12205;50.600;4.608;2022-07-15T10:45:07;21.40;99.90
23991;DHT22;12205;50.600;4.608;2022-07-15T10:47:35;21.60;99.90
23991;DHT22;12205;50.600;4.608;2022-07-15T10:50:36;21.70;99.90
23991;DHT22;12205;50.600;4.608;2022-07-15T10:53:25;21.80;99.90
23991;DHT22;12205;50.600;4.608;2022-07-15T10:55:54;22.00;99.90
23991;DHT22;12205;50.600;4.608;2022-07-15T10:58:22;22.20;99.90
23991;DHT22;12205;50.600;4.608;2022-07-15T11:00:51;22.40;99.90
23991;DHT22;12205;50.600;4.608;2022-07-15T11:03:19;22.30;99.90
23991;DHT22;12205;50.600;4.608;2022-07-15T11:06:05;22.20;99.90
23991;DHT22;12205;50.600;4.608;2022-07-15T11:08:49;22.50;99.90
23991;DHT22;12205;50.600;4.608;2022-07-15T11:11:44;22.50;99.90
23991;DHT22;12205;50.600;4.608;2022-07-15T11:14:46;22.50;99.90
23991;DHT22;12205;50.600;4.608;2022-07-15T11:17:19;22.50;99.90
23991;DHT22;12205;50.600;4.608;2022-07-15T11:19:49;22.60;99.90
23991;DHT22;12205;50.600;4.608;2022-07-15T11:22:19;22.70;99.90
23991;DHT22;12205;50.600;4.608;2022-07-15T11:24:48;22.70;99.90
23991;DHT22;12205;50.600;4.608;2022-07-15T11:27:16;23.00;99.90
23991;DHT22;12205;50.600;4.608;2022-07-15T11:29:45;23.20;99.90
23991;DHT22;12205;50.600;4.608;2022-07-15T11:32:15;23.20;99.90
23991;DHT22;12205;50.600;4.608;2022-07-15T11:34:46;23.50;99.90
23991;DHT22;12205;50.600;4.608;2022-07-15T11:37:14;23.40;99.90
23991;DHT22;12205;50.600;4.608;2022-07-15T11:39:47;23.50;99.90
23991;DHT22;12205;50.600;4.608;2022-07-15T11:42:18;23.50;99.90
23991;DHT22;12205;50.600;4.608;2022-07-15T11:45:05;23.60;99.90
23991;DHT22;12205;50.600;4.608;2022-07-15T11:47:35;24.00;99.90
23991;DHT22;12205;50.600;4.608;2022-07-15T11:50:17;24.30;99.90
23991;DHT22;12205;50.600;4.608;2022-07-15T11:52:45;24.20;99.90
23991;DHT22;12205;50.600;4.608;2022-07-15T11:55:13;23.90;99.90
23991;DHT22;12205;50.600;4.608;2022-07-15T11:57:45;24.00;99.90
23991;DHT22;12205;50.600;4.608;2022-07-15T12:00:14;24.40;99.90
23991;DHT22;12205;50.600;4.608;2022-07-15T12:02:42;24.70;99.90
23991;DHT22;12205;50.600;4.608;2022-07-15T12:05:10;24.80;99.90
23991;DHT22;12205;50.600;4.608;2022-07-15T12:07:41;25.00;99.90
23991;DHT22;12205;50.600;4.608;2022-07-15T12:10:11;25.70;99.90
23991;DHT22;12205;50.600;4.608;2022-07-15T12:12:52;26.30;99.90
23991;DHT22;12205;50.600;4.608;2022-07-15T12:15:21;27.30;99.50
23991;DHT22;12205;50.600;4.608;2022-07-15T12:17:50;28.00;96.40
23991;DHT22;12205;50.600;4.608;2022-07-15T12:20:17;27.50;93.30
23991;DHT22;12205;50.600;4.608;2022-07-15T12:23:04;27.20;94.00
23991;DHT22;12205;50.600;4.608;2022-07-15T12:25:33;27.10;93.70
23991;DHT22;12205;50.600;4.608;2022-07-15T12:28:01;27.00;93.90
23991;DHT22;12205;50.600;4.608;2022-07-15T12:30:33;26.70;93.80
23991;DHT22;12205;50.600;4.608;2022-07-15T12:33:16;27.40;94.20
23991;DHT22;12205;50.600;4.608;2022-07-15T12:35:44;28.90;93.00
23991;DHT22;12205;50.600;4.608;2022-07-15T12:38:25;30.20;91.90
23991;DHT22;12205;50.600;4.608;2022-07-15T12:40:53;31.20;86.20
23991;DHT22;12205;50.600;4.608;2022-07-15T12:43:47;32.00;79.30
23991;DHT22;12205;50.600;4.608;2022-07-15T12:46:16;32.30;73.30
23991;DHT22;12205;50.600;4.608;2022-07-15T12:48:48;31.90;71.10
23991;DHT22;12205;50.600;4.608;2022-07-15T12:51:16;31.40;71.40
23991;DHT22;12205;50.600;4.608;2022-07-15T12:53:44;30.80;71.20
23991;DHT22;12205;50.600;4.608;2022-07-15T12:56:12;30.30;72.00
23991;DHT22;12205;50.600;4.608;2022-07-15T12:58:40;29.80;73.20
23991;DHT22;12205;50.600;4.608;2022-07-15T13:01:10;29.30;73.50
23991;DHT22;12205;50.600;4.608;2022-07-15T13:03:40;28.70;74.80
23991;DHT22;12205;50.600;4.608;2022-07-15T13:06:09;28.40;75.90
23991;DHT22;12205;50.600;4.608;2022-07-15T13:08:38;28.20;76.70
23991;DHT22;12205;50.600;4.608;2022-07-15T13:11:08;28.20;77.00
23991;DHT22;12205;50.600;4.608;2022-07-15T13:13:38;28.60;77.10
23991;DHT22;12205;50.600;4.608;2022-07-15T13:16:07;29.80;73.30
23991;DHT22;12205;50.600;4.608;2022-07-15T13:18:35;30.30;72.40
23991;DHT22;12205;50.600;4.608;2022-07-15T13:21:04;30.20;72.40
23991;DHT22;12205;50.600;4.608;2022-07-15T13:23:33;29.80;70.10
23991;DHT22;12205;50.600;4.608;2022-07-15T13:26:00;29.30;72.00
23991;DHT22;12205;50.600;4.608;2022-07-15T13:28:28;28.90;72.00
23991;DHT22;12205;50.600;4.608;2022-07-15T13:30:55;28.60;71.10
23991;DHT22;12205;50.600;4.608;2022-07-15T13:33:22;28.30;72.90
23991;DHT22;12205;50.600;4.608;2022-07-15T13:35:50;27.70;72.40
23991;DHT22;12205;50.600;4.608;2022-07-15T13:38:19;27.50;73.90
23991;DHT22;12205;50.600;4.608;2022-07-15T13:40:48;27.50;72.30
23991;DHT22;12205;50.600;4.608;2022-07-15T13:43:15;28.50;71.30
23991;DHT22;12205;50.600;4.608;2022-07-15T13:45:44;29.00;69.50
23991;DHT22;12205;50.600;4.608;2022-07-15T13:48:11;29.80;70.40
23991;DHT22;12205;50.600;4.608;2022-07-15T13:50:38;31.10;66.20
23991;DHT22;12205;50.600;4.608;2022-07-15T13:53:23;31.80;65.00
23991;DHT22;12205;50.600;4.608;2022-07-15T13:55:51;32.60;63.60
23991;DHT22;12205;50.600;4.608;2022-07-15T13:58:19;32.90;61.80
23991;DHT22;12205;50.600;4.608;2022-07-15T14:00:46;32.30;62.20
23991;DHT22;12205;50.600;4.608;2022-07-15T14:03:13;31.80;63.00
23991;DHT22;12205;50.600;4.608;2022-07-15T14:05:40;31.50;63.90
23991;DHT22;12205;50.600;4.608;2022-07-15T14:08:10;31.20;63.90
23991;DHT22;12205;50.600;4.608;2022-07-15T14:10:38;30.90;64.50
23991;DHT22;12205;50.600;4.608;2022-07-15T14:13:15;30.70;64.70
23991;DHT22;12205;50.600;4.608;2022-07-15T14:15:43;30.40;65.70
23991;DHT22;12205;50.600;4.608;2022-07-15T14:18:10;30.00;65.70
23991;DHT22;12205;50.600;4.608;2022-07-15T14:20:37;29.60;65.70
23991;DHT22;12205;50.600;4.608;2022-07-15T14:23:11;29.50;65.50
23991;DHT22;12205;50.600;4.608;2022-07-15T14:25:39;30.00;66.60
23991;DHT22;12205;50.600;4.608;2022-07-15T14:28:06;31.00;65.10
23991;DHT22;12205;50.600;4.608;2022-07-15T14:30:35;31.00;63.20
23991;DHT22;12205;50.600;4.608;2022-07-15T14:33:02;30.70;62.90
23991;DHT22;12205;50.600;4.608;2022-07-15T14:35:29;30.50;62.10
23991;DHT22;12205;50.600;4.608;2022-07-15T14:37:57;30.30;62.30
23991;DHT22;12205;50.600;4.608;2022-07-15T14:40:24;30.00;61.90
23991;DHT22;12205;50.600;4.608;2022-07-15T14:42:51;29.50;62.80
23991;DHT22;12205;50.600;4.608;2022-07-15T14:45:19;29.40;63.50
23991;DHT22;12205;50.600;4.608;2022-07-15T14:47:47;29.20;64.50
23991;DHT22;12205;50.600;4.608;2022-07-15T14:50:20;28.80;65.20
23991;DHT22;12205;50.600;4.608;2022-07-15T14:52:48;29.80;65.80
23991;DHT22;12205;50.600;4.608;2022-07-15T14:55:15;30.90;64.40
23991;DHT22;12205;50.600;4.608;2022-07-15T14:57:42;31.90;62.10
23991;DHT22;12205;50.600;4.608;2022-07-15T15:00:10;33.00;60.30
23991;DHT22;12205;50.600;4.608;2022-07-15T15:02:39;33.20;58.80
23991;DHT22;12205;50.600;4.608;2022-07-15T15:05:08;34.00;57.30
23991;DHT22;12205;50.600;4.608;2022-07-15T15:07:35;34.80;54.90
23991;DHT22;12205;50.600;4.608;2022-07-15T15:10:03;35.40;54.00
23991;DHT22;12205;50.600;4.608;2022-07-15T15:12:31;35.60;53.70
23991;DHT22;12205;50.600;4.608;2022-07-15T15:14:58;35.10;52.20
23991;DHT22;12205;50.600;4.608;2022-07-15T15:17:25;35.10;52.50
23991;DHT22;12205;50.600;4.608;2022-07-15T15:19:52;35.70;52.70
23991;DHT22;12205;50.600;4.608;2022-07-15T15:22:21;35.30;51.00
23991;DHT22;12205;50.600;4.608;2022-07-15T15:24:48;35.00;51.60
23991;DHT22;12205;50.600;4.608;2022-07-15T15:27:15;35.40;52.30
23991;DHT22;12205;50.600;4.608;2022-07-15T15:29:42;35.60;51.40
23991;DHT22;12205;50.600;4.608;2022-07-15T15:32:09;35.10;51.60
23991;DHT22;12205;50.600;4.608;2022-07-15T15:34:39;34.60;51.10
23991;DHT22;12205;50.600;4.608;2022-07-15T15:37:07;33.90;51.10
23991;DHT22;12205;50.600;4.608;2022-07-15T15:39:35;33.10;52.20
23991;DHT22;12205;50.600;4.608;2022-07-15T15:42:04;32.60;53.50
23991;DHT22;12205;50.600;4.608;2022-07-15T15:44:32;33.10;53.60
23991;DHT22;12205;50.600;4.608;2022-07-15T15:46:59;33.40;53.30
23991;DHT22;12205;50.600;4.608;2022-07-15T15:49:27;33.20;52.20
23991;DHT22;12205;50.600;4.608;2022-07-15T15:51:54;33.10;52.40
23991;DHT22;12205;50.600;4.608;2022-07-15T15:54:22;33.40;51.70